Time;durP1;ratioP1;P1;durP2;ratioP2;P2;SDS_P1;SDS_P2;PMS_P1;PMS_P2;Temp;Humidity;BMP_temperature;BMP_pressure;BME280_temperature;BME280_humidity;BME280_pressure;Samples;Min_cycle;Max_cycle;Signal;HPM_P1;HPM_P2
2023/07/21 00:01:46;;;;;;;6.57;6.38;;;18.80;99.90;;;;;;5035134;28;20311;-67
2023/07/21 00:04:13;;;;;;;6.80;6.60;;;18.80;99.90;;;;;;5034434;28;20204;-65
2023/07/21 00:06:43;;;;;;;6.85;6.65;;;18.80;99.90;;;;;;5018152;28;20213;-66
2023/07/21 00:09:10;;;;;;;6.70;6.50;;;18.70;99.90;;;;;;5023010;28;20225;-65
2023/07/21 00:11:38;;;;;;;6.82;6.63;;;18.60;99.90;;;;;;5017976;28;20238;-65
2023/07/21 00:14:05;;;;;;;6.82;6.63;;;18.60;99.90;;;;;;5024306;28;20207;-65
2023/07/21 00:16:32;;;;;;;6.95;6.75;;;18.60;99.90;;;;;;5034658;28;20201;-67
2023/07/21 00:19:01;;;;;;;6.85;6.65;;;18.60;99.90;;;;;;5016782;28;20259;-66
2023/07/21 00:21:29;;;;;;;6.28;6.07;;;18.60;99.90;;;;;;5052516;28;20417;-66
2023/07/21 00:23:56;;;;;;;7.25;6.95;;;18.60;99.90;;;;;;5053924;28;20211;-65
2023/07/21 00:26:24;;;;;;;6.45;6.25;;;18.60;99.90;;;;;;5055545;28;20208;-67
2023/07/21 00:28:51;;;;;;;6.68;6.47;;;18.60;99.90;;;;;;5057136;28;20301;-65
2023/07/21 00:31:18;;;;;;;6.38;6.18;;;18.70;99.90;;;;;;5039877;28;20205;-65
2023/07/21 00:33:44;;;;;;;6.47;6.18;;;18.60;99.90;;;;;;5035422;28;20741;-65
2023/07/21 00:36:13;;;;;;;6.38;6.18;;;18.60;99.90;;;;;;5034915;28;20659;-65
2023/07/21 00:38:40;;;;;;;6.30;6.10;;;18.60;99.90;;;;;;5018104;28;20200;-66
2023/07/21 00:41:07;;;;;;;6.38;6.18;;;18.60;99.90;;;;;;5033308;28;20204;-65
2023/07/21 00:43:34;;;;;;;6.43;6.22;;;18.70;99.90;;;;;;5034048;28;20231;-66
2023/07/21 00:46:01;;;;;;;6.65;6.35;;;18.70;99.90;;;;;;5033859;28;20212;-65
2023/07/21 00:48:28;;;;;;;6.55;6.35;;;18.70;99.90;;;;;;5033624;28;20238;-65
2023/07/21 00:50:55;;;;;;;6.80;6.60;;;18.80;99.90;;;;;;5048855;28;20222;-67
2023/07/21 00:53:25;;;;;;;6.97;6.78;;;18.80;99.90;;;;;;5033617;28;20221;-68
2023/07/21 00:55:52;;;;;;;6.78;6.57;;;18.90;99.90;;;;;;5024689;28;20205;-65
2023/07/21 00:58:22;;;;;;;6.95;6.75;;;18.80;99.90;;;;;;5012587;28;20217;-66
2023/07/21 01:00:48;;;;;;;7.18;6.97;;;18.90;99.90;;;;;;5021167;28;20620;-64
2023/07/21 01:03:36;;;;;;;6.72;6.53;;;18.90;99.90;;;;;;5042933;28;20251;-66
2023/07/21 01:06:04;;;;;;;6.75;6.55;;;18.70;99.90;;;;;;5020613;28;20211;-66
2023/07/21 01:08:32;;;;;;;6.88;6.68;;;18.80;99.90;;;;;;5012077;28;20221;-65
2023/07/21 01:11:00;;;;;;;7.05;6.85;;;18.90;99.90;;;;;;4995342;28;20214;-65
2023/07/21 01:13:28;;;;;;;6.68;6.47;;;18.90;99.90;;;;;;4992033;28;20237;-65
2023/07/21 01:15:56;;;;;;;6.75;6.55;;;18.90;99.90;;;;;;5011108;28;20292;-65
2023/07/21 01:18:25;;;;;;;6.82;6.63;;;18.90;99.90;;;;;;5010117;28;20747;-66
2023/07/21 01:20:54;;;;;;;6.75;6.55;;;18.90;99.90;;;;;;5009324;28;20739;-65
2023/07/21 01:23:28;;;;;;;6.85;6.55;;;18.90;99.90;;;;;;5012923;28;20231;-66
2023/07/21 01:25:58;;;;;;;6.63;6.43;;;18.80;99.90;;;;;;5033672;28;20188;-66
2023/07/21 01:28:26;;;;;;;6.65;6.45;;;18.80;99.90;;;;;;5029981;28;20225;-67
2023/07/21 01:30:56;;;;;;;6.65;6.45;;;18.80;99.90;;;;;;5012742;28;20207;-64
2023/07/21 01:33:23;;;;;;;6.75;6.55;;;18.80;99.90;;;;;;5051750;22;20361;-61
2023/07/21 01:35:50;;;;;;;6.50;6.30;;;18.70;99.90;;;;;;5031736;28;20205;-62
2023/07/21 01:38:19;;;;;;;6.40;6.20;;;18.70;99.90;;;;;;5032387;28;20200;-61
2023/07/21 01:40:47;;;;;;;6.88;6.68;;;18.70;99.90;;;;;;5030732;28;20205;-62
2023/07/21 01:43:16;;;;;;;6.65;6.45;;;18.60;99.90;;;;;;5033250;28;20446;-62
2023/07/21 01:45:42;;;;;;;6.53;6.32;;;18.50;99.90;;;;;;5034625;28;20626;-65
2023/07/21 01:48:10;;;;;;;6.30;6.10;;;18.50;99.90;;;;;;5037670;28;20228;-64
2023/07/21 01:50:40;;;;;;;6.30;6.10;;;18.40;99.90;;;;;;5036734;28;20220;-62
2023/07/21 01:53:13;;;;;;;6.05;5.85;;;18.40;99.90;;;;;;5037221;28;20279;-64
2023/07/21 01:55:47;;;;;;;6.05;5.85;;;18.40;99.90;;;;;;5036400;28;20227;-61
2023/07/21 01:58:15;;;;;;;5.88;5.68;;;18.30;99.90;;;;;;5040759;28;20208;-63
2023/07/21 02:00:43;;;;;;;5.75;5.55;;;18.20;99.90;;;;;;5039741;28;20207;-62
2023/07/21 02:03:11;;;;;;;5.90;5.70;;;18.20;99.90;;;;;;5033690;28;20228;-62
2023/07/21 02:05:38;;;;;;;5.93;5.72;;;18.10;99.90;;;;;;5031520;28;20568;-62
2023/07/21 02:08:05;;;;;;;5.80;5.60;;;18.00;99.90;;;;;;5030705;28;20205;-62
2023/07/21 02:10:32;;;;;;;5.90;5.70;;;17.90;99.90;;;;;;5030704;28;20200;-62
2023/07/21 02:12:58;;;;;;;6.57;6.38;;;17.80;99.90;;;;;;5031093;28;20227;-62
2023/07/21 02:15:27;;;;;;;6.07;5.88;;;17.80;99.90;;;;;;5031041;28;20203;-61
2023/07/21 02:17:54;;;;;;;5.70;5.50;;;17.60;99.90;;;;;;5031218;28;20311;-62
2023/07/21 02:20:21;;;;;;;5.80;5.60;;;17.50;99.90;;;;;;5034629;28;20310;-61
2023/07/21 02:22:48;;;;;;;5.82;5.63;;;17.40;99.90;;;;;;5038329;28;20651;-63
2023/07/21 02:25:15;;;;;;;5.70;5.50;;;17.40;99.90;;;;;;5031112;28;20211;-62
2023/07/21 02:27:42;;;;;;;5.70;5.50;;;17.40;99.90;;;;;;5031069;28;20231;-62
2023/07/21 02:30:10;;;;;;;5.70;5.50;;;17.40;99.90;;;;;;5029833;28;20240;-62
2023/07/21 02:32:39;;;;;;;5.55;5.35;;;17.40;99.90;;;;;;5030172;28;20212;-62
2023/07/21 02:35:08;;;;;;;5.70;5.50;;;17.40;99.90;;;;;;5041549;28;20239;-62
2023/07/21 02:37:35;;;;;;;5.75;5.55;;;17.40;99.90;;;;;;5030795;28;20592;-61
2023/07/21 02:40:06;;;;;;;5.80;5.60;;;17.40;99.90;;;;;;5029710;28;20534;-61
2023/07/21 02:42:34;;;;;;;5.60;5.40;;;17.50;99.90;;;;;;5030678;28;20210;-61
2023/07/21 02:45:01;;;;;;;6.43;6.22;;;17.40;99.90;;;;;;5030480;28;20240;-63
2023/07/21 02:47:28;;;;;;;5.80;5.60;;;17.40;99.90;;;;;;5030596;28;20284;-62
2023/07/21 02:49:56;;;;;;;5.80;5.60;;;17.40;99.90;;;;;;5029274;28;20319;-62
2023/07/21 02:52:23;;;;;;;5.82;5.63;;;17.30;99.90;;;;;;5030718;28;20197;-63
2023/07/21 02:54:50;;;;;;;6.05;5.85;;;17.20;99.90;;;;;;5030121;28;20239;-62
2023/07/21 02:57:17;;;;;;;6.53;6.32;;;17.10;99.90;;;;;;5029222;28;20200;-62
2023/07/21 02:59:45;;;;;;;5.63;5.43;;;17.10;99.90;;;;;;5028272;28;20255;-62
2023/07/21 03:02:12;;;;;;;5.95;5.75;;;17.10;99.90;;;;;;5029235;28;20292;-62
2023/07/21 03:04:42;;;;;;;6.03;5.82;;;17.00;99.90;;;;;;5029517;28;20220;-63
2023/07/21 03:07:11;;;;;;;6.00;5.70;;;17.00;99.90;;;;;;5029658;28;20204;-62
2023/07/21 03:09:38;;;;;;;5.85;5.65;;;17.10;99.90;;;;;;5028791;28;20224;-62
2023/07/21 03:12:06;;;;;;;5.90;5.70;;;17.10;99.90;;;;;;5029592;28;20609;-62
2023/07/21 03:14:33;;;;;;;5.80;5.60;;;17.00;99.90;;;;;;5029218;28;20278;-62
2023/07/21 03:17:00;;;;;;;5.95;5.75;;;17.00;99.90;;;;;;5029019;28;20212;-62
2023/07/21 03:19:30;;;;;;;5.70;5.50;;;17.00;99.90;;;;;;5028027;28;20209;-61
2023/07/21 03:21:57;;;;;;;5.80;5.60;;;17.00;99.90;;;;;;5029167;28;20662;-63
2023/07/21 03:24:26;;;;;;;5.93;5.72;;;16.80;99.90;;;;;;5029165;28;20633;-63
2023/07/21 03:26:52;;;;;;;6.00;5.80;;;16.90;99.90;;;;;;5029851;28;20208;-63
2023/07/21 03:29:19;;;;;;;6.10;5.90;;;16.80;99.90;;;;;;5028535;28;20664;-62
2023/07/21 03:31:46;;;;;;;5.85;5.65;;;16.80;99.90;;;;;;5029084;28;20209;-62
2023/07/21 03:34:13;;;;;;;7.07;6.88;;;16.70;99.90;;;;;;5028498;28;20228;-62
2023/07/21 03:36:40;;;;;;;5.80;5.60;;;16.80;99.90;;;;;;5032821;28;20943;-62
2023/07/21 03:39:07;;;;;;;5.82;5.63;;;16.60;99.90;;;;;;5032015;28;20697;-62
2023/07/21 03:41:35;;;;;;;6.03;5.82;;;16.60;99.90;;;;;;5032653;28;20693;-60
2023/07/21 03:44:02;;;;;;;6.00;5.80;;;16.50;99.90;;;;;;5032888;28;20232;-63
2023/07/21 03:46:29;;;;;;;5.72;5.53;;;16.50;99.90;;;;;;5032999;28;20292;-63
2023/07/21 03:48:56;;;;;;;5.97;5.78;;;16.40;99.90;;;;;;5032671;28;20662;-61
2023/07/21 03:51:23;;;;;;;5.88;5.68;;;16.40;99.90;;;;;;5031814;28;20322;-62
2023/07/21 03:53:50;;;;;;;6.07;5.88;;;16.40;99.90;;;;;;5032708;28;20225;-62
2023/07/21 03:56:18;;;;;;;5.90;5.70;;;16.40;99.90;;;;;;5031573;28;20204;-62
2023/07/21 03:58:47;;;;;;;6.00;5.80;;;16.50;99.90;;;;;;5033127;28;20319;-62
2023/07/21 04:01:14;;;;;;;6.35;6.15;;;16.50;99.90;;;;;;5033420;28;20238;-60
2023/07/21 04:03:41;;;;;;;6.28;6.07;;;16.50;99.90;;;;;;5033412;28;20228;-62
2023/07/21 04:06:08;;;;;;;6.40;6.20;;;16.50;99.90;;;;;;5033864;28;20223;-63
2023/07/21 04:08:35;;;;;;;6.30;6.10;;;16.40;99.90;;;;;;5033473;28;20299;-62
2023/07/21 04:11:02;;;;;;;6.03;5.82;;;16.40;99.90;;;;;;5032872;28;20208;-61
2023/07/21 04:13:29;;;;;;;6.05;5.85;;;16.40;99.90;;;;;;5032510;28;20609;-63
2023/07/21 04:15:57;;;;;;;6.10;5.90;;;16.50;99.90;;;;;;5032150;28;20246;-63
2023/07/21 04:18:25;;;;;;;6.10;5.88;;;16.50;99.90;;;;;;5032308;28;20330;-62
2023/07/21 04:20:52;;;;;;;6.40;6.10;;;16.50;99.90;;;;;;5037726;28;20236;-62
2023/07/21 04:23:19;;;;;;;7.25;7.00;;;16.50;99.90;;;;;;5040126;28;20315;-62
2023/07/21 04:25:46;;;;;;;6.18;5.97;;;16.50;99.90;;;;;;5032527;28;20212;-63
2023/07/21 04:28:13;;;;;;;6.65;6.45;;;16.60;99.90;;;;;;5031991;28;20640;-61
2023/07/21 04:30:40;;;;;;;6.57;6.38;;;16.50;99.90;;;;;;5030992;28;20597;-62
2023/07/21 04:33:09;;;;;;;6.53;6.32;;;16.50;99.90;;;;;;5031677;28;20315;-62
2023/07/21 04:35:36;;;;;;;6.25;6.05;;;16.60;99.90;;;;;;5028819;28;20210;-63
2023/07/21 04:38:03;;;;;;;6.38;5.97;;;16.50;99.90;;;;;;5028229;28;20196;-62
2023/07/21 04:40:30;;;;;;;6.38;6.18;;;16.50;99.90;;;;;;5028442;28;20207;-62
2023/07/21 04:42:56;;;;;;;6.20;6.00;;;16.50;99.90;;;;;;5027088;28;20234;-61
2023/07/21 04:45:23;;;;;;;6.00;5.70;;;16.60;99.90;;;;;;5025836;28;20203;-62
2023/07/21 04:47:53;;;;;;;5.90;5.70;;;16.70;99.90;;;;;;5031584;28;20292;-62
2023/07/21 04:50:21;;;;;;;6.10;5.90;;;16.70;99.90;;;;;;5031249;28;20232;-61
2023/07/21 04:52:48;;;;;;;6.32;6.13;;;16.70;99.90;;;;;;5031371;28;20209;-62
2023/07/21 04:55:15;;;;;;;5.88;5.68;;;16.80;99.90;;;;;;5031847;28;20608;-62
2023/07/21 04:57:42;;;;;;;5.95;5.75;;;16.80;99.90;;;;;;5020262;28;20695;-63
2023/07/21 05:00:12;;;;;;;6.05;5.85;;;16.90;99.90;;;;;;5011355;28;20198;-63
2023/07/21 05:02:39;;;;;;;6.15;5.95;;;16.90;99.90;;;;;;5021416;28;20197;-62
2023/07/21 05:05:06;;;;;;;6.07;5.87;;;16.80;99.90;;;;;;5031485;28;20289;-63
2023/07/21 05:07:34;;;;;;;6.13;5.93;;;16.80;99.90;;;;;;5030220;28;20235;-62
2023/07/21 05:10:01;;;;;;;6.10;5.90;;;16.90;99.90;;;;;;5022002;28;20691;-63
2023/07/21 05:12:28;;;;;;;6.95;6.65;;;17.00;99.90;;;;;;5022525;28;20240;-63
2023/07/21 05:14:57;;;;;;;5.93;5.72;;;17.00;99.90;;;;;;5027657;28;20224;-63
2023/07/21 05:17:25;;;;;;;6.30;6.10;;;17.10;99.90;;;;;;5032457;28;20197;-62
2023/07/21 05:19:52;;;;;;;6.63;6.22;;;17.10;99.90;;;;;;5030591;28;20205;-67
2023/07/21 05:22:18;;;;;;;6.00;5.80;;;17.20;99.90;;;;;;5030583;28;20215;-66
2023/07/21 05:24:47;;;;;;;6.30;6.05;;;17.30;99.90;;;;;;5025481;28;20232;-66
2023/07/21 05:27:13;;;;;;;6.00;5.80;;;17.50;99.90;;;;;;5023675;28;20218;-67
2023/07/21 05:29:40;;;;;;;5.90;5.60;;;17.70;99.90;;;;;;5023868;28;20311;-66
2023/07/21 05:32:08;;;;;;;6.18;5.97;;;17.80;99.90;;;;;;5025114;28;20201;-68
2023/07/21 05:34:35;;;;;;;6.15;5.95;;;17.90;99.90;;;;;;5023499;28;20317;-64
2023/07/21 05:37:02;;;;;;;5.97;5.78;;;18.10;99.90;;;;;;5023608;28;20285;-64
2023/07/21 05:39:29;;;;;;;6.20;6.00;;;18.20;99.90;;;;;;5026637;28;20323;-63
2023/07/21 05:41:59;;;;;;;5.90;5.70;;;18.40;99.90;;;;;;5030750;28;20683;-64
2023/07/21 05:44:27;;;;;;;5.93;5.72;;;18.60;99.90;;;;;;5030710;28;20224;-62
2023/07/21 05:46:54;;;;;;;6.40;6.20;;;18.70;99.90;;;;;;5030520;28;20666;-62
2023/07/21 05:49:22;;;;;;;6.53;6.32;;;18.80;99.90;;;;;;5026436;28;20307;-63
2023/07/21 05:51:50;;;;;;;6.68;6.47;;;18.80;99.90;;;;;;5025337;28;20220;-63
2023/07/21 05:54:17;;;;;;;7.25;7.05;;;19.00;99.90;;;;;;5028162;28;20316;-63
2023/07/21 05:56:44;;;;;;;6.65;6.45;;;19.20;99.90;;;;;;5029846;28;20211;-63
2023/07/21 05:59:12;;;;;;;7.38;7.10;;;19.30;99.90;;;;;;5024464;28;20208;-63
2023/07/21 06:01:40;;;;;;;6.90;6.70;;;19.50;99.90;;;;;;5034538;28;20200;-63
2023/07/21 06:04:09;;;;;;;6.72;6.53;;;19.70;99.90;;;;;;5027071;28;20320;-63
2023/07/21 06:06:35;;;;;;;6.80;6.60;;;20.00;99.90;;;;;;5030673;28;20286;-63
2023/07/21 06:09:03;;;;;;;7.15;6.95;;;20.20;99.90;;;;;;5030627;28;20204;-65
2023/07/21 06:11:30;;;;;;;7.28;7.07;;;20.30;99.90;;;;;;5030304;28;20236;-62
2023/07/21 06:13:57;;;;;;;7.40;7.13;;;20.40;99.90;;;;;;5036226;28;20224;-67
2023/07/21 06:16:25;;;;;;;7.32;7.03;;;20.60;99.90;;;;;;5046797;28;20272;-66
2023/07/21 06:18:52;;;;;;;7.03;6.82;;;20.70;99.90;;;;;;5048033;28;20327;-64
2023/07/21 06:21:20;;;;;;;7.00;6.80;;;20.90;99.90;;;;;;5043073;28;20205;-67
2023/07/21 06:23:47;;;;;;;7.07;6.85;;;21.00;99.90;;;;;;5043396;28;20247;-65
2023/07/21 06:26:14;;;;;;;7.65;7.35;;;21.20;99.90;;;;;;5041183;28;20212;-64
2023/07/21 06:28:41;;;;;;;6.72;6.53;;;21.40;99.90;;;;;;5039237;28;20730;-64
2023/07/21 06:31:10;;;;;;;7.18;6.97;;;21.60;99.90;;;;;;5033364;28;20228;-65
2023/07/21 06:33:38;;;;;;;7.30;7.10;;;21.80;99.90;;;;;;5035549;28;20232;-63
2023/07/21 06:36:05;;;;;;;7.45;7.22;;;21.70;99.90;;;;;;5031879;28;20205;-63
2023/07/21 06:38:33;;;;;;;7.30;7.00;;;21.70;99.90;;;;;;5031164;28;20295;-63
2023/07/21 06:41:00;;;;;;;7.68;7.38;;;21.70;99.90;;;;;;5030480;28;20255;-64
2023/07/21 06:43:27;;;;;;;7.72;7.47;;;21.90;99.90;;;;;;5030380;28;20232;-63
2023/07/21 06:45:54;;;;;;;8.20;7.90;;;22.00;99.90;;;;;;5034366;28;20579;-65
2023/07/21 06:48:21;;;;;;;7.35;7.05;;;22.10;99.90;;;;;;5041322;28;20266;-63
2023/07/21 06:50:49;;;;;;;7.22;7.03;;;22.00;99.90;;;;;;5028983;28;20315;-64
2023/07/21 06:53:17;;;;;;;7.68;7.38;;;22.00;99.90;;;;;;5029676;28;20225;-64
2023/07/21 06:55:44;;;;;;;7.20;7.00;;;21.90;99.90;;;;;;5029598;28;20259;-64
2023/07/21 06:58:12;;;;;;;7.45;7.18;;;21.90;99.90;;;;;;5029558;28;20209;-64
2023/07/21 07:00:38;;;;;;;8.70;8.35;;;21.90;99.90;;;;;;5028945;28;20200;-65
2023/07/21 07:03:05;;;;;;;7.85;7.55;;;21.80;99.90;;;;;;5029316;28;20231;-64
2023/07/21 07:05:32;;;;;;;7.82;7.60;;;21.90;99.90;;;;;;5029660;28;20204;-65
2023/07/21 07:08:00;;;;;;;7.70;7.40;;;21.90;99.90;;;;;;5032164;28;20204;-63
2023/07/21 07:10:27;;;;;;;8.10;7.80;;;21.90;99.90;;;;;;5032735;28;20224;-63
2023/07/21 07:12:54;;;;;;;7.82;7.53;;;21.90;99.90;;;;;;5035846;28;20568;-62
2023/07/21 07:15:21;;;;;;;7.43;7.18;;;22.00;99.90;;;;;;5035034;28;20215;-64
2023/07/21 07:17:48;;;;;;;7.03;6.82;;;22.00;99.90;;;;;;5035388;28;20300;-63
2023/07/21 07:20:14;;;;;;;7.03;6.82;;;22.10;99.90;;;;;;5041992;28;20235;-65
2023/07/21 07:22:41;;;;;;;8.07;7.78;;;22.20;99.90;;;;;;5042868;28;20295;-66
2023/07/21 07:25:10;;;;;;;7.85;7.55;;;22.40;99.90;;;;;;5038504;28;20208;-64
2023/07/21 07:27:37;;;;;;;7.30;7.00;;;22.40;99.90;;;;;;5032427;28;20204;-63
2023/07/21 07:30:05;;;;;;;6.93;6.72;;;22.40;99.90;;;;;;5029281;28;20225;-64
2023/07/21 07:32:32;;;;;;;6.75;6.55;;;22.30;99.90;;;;;;5029955;28;20247;-64
2023/07/21 07:34:59;;;;;;;6.75;6.55;;;22.10;99.90;;;;;;5029662;28;20303;-64
2023/07/21 07:37:27;;;;;;;7.15;6.95;;;22.20;99.90;;;;;;5032077;28;20319;-63
2023/07/21 07:39:55;;;;;;;7.43;7.15;;;22.40;99.90;;;;;;5048460;28;20200;-65
2023/07/21 07:42:23;;;;;;;7.32;7.03;;;22.60;99.90;;;;;;5049071;28;20265;-64
2023/07/21 07:44:53;;;;;;;6.93;6.70;;;22.50;99.90;;;;;;5048380;28;20288;-65
2023/07/21 07:47:20;;;;;;;7.55;7.05;;;22.60;99.90;;;;;;5049336;28;20208;-66
2023/07/21 07:49:47;;;;;;;7.38;7.07;;;22.70;99.90;;;;;;5048044;28;20204;-66
2023/07/21 07:52:15;;;;;;;7.32;7.10;;;23.00;99.90;;;;;;5039311;28;20208;-65
2023/07/21 07:54:42;;;;;;;7.47;7.10;;;23.20;99.90;;;;;;5030072;28;20278;-65
2023/07/21 07:57:09;;;;;;;7.00;6.80;;;23.40;99.90;;;;;;5030823;28;20215;-67
2023/07/21 07:59:37;;;;;;;6.90;6.60;;;23.70;99.90;;;;;;5031217;28;20205;-64
2023/07/21 08:02:04;;;;;;;7.10;6.90;;;23.80;99.90;;;;;;5030193;28;20208;-66
2023/07/21 08:04:31;;;;;;;6.93;6.72;;;23.90;99.90;;;;;;5029551;28;20784;-65
2023/07/21 08:06:58;;;;;;;6.90;6.70;;;24.00;99.90;;;;;;5029719;28;20204;-65
2023/07/21 08:09:25;;;;;;;7.25;6.95;;;24.30;99.90;;;;;;5028813;28;20212;-64
2023/07/21 08:11:51;;;;;;;6.72;6.43;;;24.50;99.90;;;;;;5029058;28;20722;-65
2023/07/21 08:14:18;;;;;;;7.05;6.85;;;24.50;99.90;;;;;;5029289;28;20221;-66
2023/07/21 08:16:46;;;;;;;6.60;6.40;;;24.60;99.90;;;;;;5030817;28;20208;-65
2023/07/21 08:19:13;;;;;;;7.53;7.22;;;24.60;99.90;;;;;;5029666;28;20692;-65
2023/07/21 08:21:40;;;;;;;6.90;6.70;;;24.60;99.90;;;;;;5031283;28;20243;-66
2023/07/21 08:24:07;;;;;;;6.85;6.65;;;24.70;99.90;;;;;;5033158;28;20235;-65
2023/07/21 08:26:34;;;;;;;6.72;6.43;;;24.70;99.90;;;;;;5033643;28;20230;-66
2023/07/21 08:29:00;;;;;;;6.40;6.20;;;24.50;99.90;;;;;;5033250;28;20663;-67
2023/07/21 08:31:27;;;;;;;6.80;6.60;;;24.30;99.90;;;;;;5032460;28;20220;-64
2023/07/21 08:33:55;;;;;;;6.50;6.30;;;24.40;99.90;;;;;;5032137;28;20323;-64
2023/07/21 08:36:22;;;;;;;7.35;7.15;;;24.70;99.90;;;;;;5032532;28;20216;-64
2023/07/21 08:38:51;;;;;;;7.50;7.20;;;24.90;99.90;;;;;;5032254;28;20205;-66
2023/07/21 08:41:20;;;;;;;6.90;6.70;;;25.00;99.90;;;;;;5031827;28;20204;-64
2023/07/21 08:43:48;;;;;;;7.55;7.28;;;25.00;99.90;;;;;;5032973;28;20235;-65
2023/07/21 08:46:16;;;;;;;53.17;50.53;;;25.20;99.90;;;;;;5034151;28;20205;-67
2023/07/21 08:48:43;;;;;;;20.35;19.55;;;25.10;99.90;;;;;;5032389;28;20204;-65
2023/07/21 08:51:11;;;;;;;7.80;7.50;;;24.80;99.90;;;;;;5031770;28;20287;-65
2023/07/21 08:53:38;;;;;;;13.20;12.63;;;24.80;99.90;;;;;;5032658;28;20233;-66
2023/07/21 08:56:05;;;;;;;9.52;9.23;;;24.90;99.90;;;;;;5054284;28;20223;-65
2023/07/21 08:58:32;;;;;;;9.43;9.13;;;25.00;99.90;;;;;;5061701;28;20210;-65
2023/07/21 09:00:59;;;;;;;7.63;7.43;;;25.20;99.90;;;;;;5059294;28;20275;-65
2023/07/21 09:03:29;;;;;;;7.43;7.22;;;25.30;99.90;;;;;;5056086;28;20226;-65
2023/07/21 09:05:57;;;;;;;7.97;7.68;;;25.40;99.90;;;;;;5053729;28;20203;-65
2023/07/21 09:08:27;;;;;;;7.20;7.00;;;25.50;99.90;;;;;;5052590;28;20208;-64
2023/07/21 09:10:58;;;;;;;7.10;6.90;;;25.60;99.90;;;;;;5050973;28;20755;-65
2023/07/21 09:13:26;;;;;;;7.78;7.55;;;25.60;99.90;;;;;;5051995;28;20224;-67
2023/07/21 09:15:54;;;;;;;7.55;7.30;;;25.60;99.90;;;;;;5052286;28;20203;-65
2023/07/21 09:18:26;;;;;;;7.38;7.18;;;25.50;99.90;;;;;;5051916;28;20702;-65
2023/07/21 09:20:53;;;;;;;7.18;6.97;;;25.50;99.90;;;;;;5051344;28;20196;-65
2023/07/21 09:23:21;;;;;;;7.35;7.15;;;25.60;99.90;;;;;;5051992;28;20690;-66
2023/07/21 09:25:54;;;;;;;10.95;10.55;;;25.70;99.90;;;;;;5051726;28;20330;-66
2023/07/21 09:28:21;;;;;;;14.77;14.18;;;25.70;99.90;;;;;;5051616;28;20295;-65
2023/07/21 09:30:52;;;;;;;6.90;6.70;;;25.50;99.90;;;;;;5050927;28;20863;-66
2023/07/21 09:33:24;;;;;;;7.78;7.47;;;25.70;99.90;;;;;;5050152;28;20270;-64
2023/07/21 09:35:52;;;;;;;7.93;7.63;;;25.80;99.90;;;;;;5051555;28;20204;-65
2023/07/21 09:38:21;;;;;;;7.05;6.85;;;25.90;99.90;;;;;;5050787;28;20890;-66
2023/07/21 09:40:48;;;;;;;7.30;7.00;;;26.00;99.90;;;;;;5052303;28;20234;-67
2023/07/21 09:43:18;;;;;;;7.60;7.30;;;26.10;99.90;;;;;;5052695;28;20674;-67
2023/07/21 09:45:45;;;;;;;7.47;7.18;;;26.30;99.90;;;;;;5052168;28;20200;-67
2023/07/21 09:48:13;;;;;;;7.38;7.18;;;26.40;99.90;;;;;;5051601;28;20711;-67
2023/07/21 09:50:41;;;;;;;7.50;7.20;;;26.40;99.90;;;;;;5050087;28;20215;-66
2023/07/21 09:53:10;;;;;;;9.63;9.30;;;26.50;99.90;;;;;;5051511;28;20224;-66
2023/07/21 09:55:44;;;;;;;7.55;7.20;;;26.50;99.90;;;;;;5050807;28;20231;-66
2023/07/21 09:58:15;;;;;;;7.80;7.50;;;26.20;99.90;;;;;;5050352;28;20273;-65
2023/07/21 10:00:44;;;;;;;8.98;8.68;;;26.30;99.90;;;;;;5050606;28;20245;-65
2023/07/21 10:03:12;;;;;;;8.90;8.50;;;26.40;99.90;;;;;;5050751;28;20263;-65
2023/07/21 10:05:39;;;;;;;7.78;7.55;;;26.60;99.90;;;;;;5050548;28;20207;-66
2023/07/21 10:08:09;;;;;;;10.77;10.38;;;27.00;99.90;;;;;;5050494;28;20204;-64
2023/07/21 10:10:36;;;;;;;8.40;8.10;;;26.80;99.90;;;;;;5049671;28;20211;-67
2023/07/21 10:13:07;;;;;;;7.47;7.28;;;26.90;99.90;;;;;;5046559;28;20217;-66
2023/07/21 10:15:35;;;;;;;12.23;11.82;;;27.40;99.90;;;;;;5033869;28;20207;-66
2023/07/21 10:18:06;;;;;;;7.75;7.45;;;27.40;99.90;;;;;;5051017;28;20378;-65
2023/07/21 10:20:44;;;;;;;8.27;7.97;;;27.00;99.90;;;;;;5051108;28;20211;-65
2023/07/21 10:23:13;;;;;;;7.95;7.65;;;26.90;99.90;;;;;;5051671;28;20234;-65
2023/07/21 10:25:48;;;;;;;7.82;7.55;;;26.70;99.90;;;;;;5051594;28;20315;-66
2023/07/21 10:28:15;;;;;;;7.43;7.22;;;26.60;99.90;;;;;;5051395;28;20206;-67
2023/07/21 10:30:42;;;;;;;8.75;8.45;;;26.60;99.90;;;;;;5050540;28;21074;-64
2023/07/21 10:33:16;;;;;;;7.80;7.40;;;26.40;99.90;;;;;;5050522;28;20235;-65
2023/07/21 10:35:43;;;;;;;7.90;7.60;;;26.20;99.90;;;;;;5051745;28;20323;-66
2023/07/21 10:38:22;;;;;;;6.90;6.70;;;26.20;99.90;;;;;;5051270;28;20294;-64
2023/07/21 10:40:48;;;;;;;8.93;8.63;;;26.30;99.90;;;;;;5050824;28;20207;-65
2023/07/21 10:43:16;;;;;;;8.07;7.78;;;26.30;99.90;;;;;;5051229;28;20234;-65
2023/07/21 10:45:43;;;;;;;7.70;7.45;;;26.30;99.90;;;;;;5051038;28;20208;-65
2023/07/21 10:48:11;;;;;;;16.90;16.30;;;26.20;99.90;;;;;;5051198;28;20199;-67
2023/07/21 10:50:40;;;;;;;53.92;51.05;;;26.20;99.90;;;;;;5050458;28;20203;-65
2023/07/21 10:53:07;;;;;;;8.60;8.30;;;25.90;99.90;;;;;;5050944;28;20230;-64
2023/07/21 10:55:37;;;;;;;37.03;34.50;;;25.70;99.90;;;;;;5050843;28;20214;-65
2023/07/21 10:58:04;;;;;;;9.65;9.27;;;25.60;99.90;;;;;;5050099;28;20216;-66
2023/07/21 11:00:35;;;;;;;7.68;7.38;;;25.60;99.90;;;;;;5049217;28;20207;-65
2023/07/21 11:03:02;;;;;;;9.80;9.40;;;25.60;99.90;;;;;;5049372;28;20223;-65
2023/07/21 11:05:36;;;;;;;6.70;6.50;;;25.60;99.90;;;;;;5049666;28;20649;-65
2023/07/21 11:08:04;;;;;;;7.95;7.65;;;25.50;99.90;;;;;;5050420;28;20258;-65
2023/07/21 11:10:33;;;;;;;6.97;6.78;;;25.40;99.90;;;;;;5049398;28;20208;-65
2023/07/21 11:13:00;;;;;;;6.82;6.63;;;25.30;99.90;;;;;;5049564;28;20239;-65
2023/07/21 11:15:27;;;;;;;8.75;8.45;;;25.30;99.90;;;;;;5049664;28;20688;-66
2023/07/21 11:17:59;;;;;;;8.25;7.95;;;25.20;99.90;;;;;;5048928;28;20207;-66
2023/07/21 11:20:26;;;;;;;12.00;11.52;;;25.10;99.90;;;;;;5048570;28;20669;-66
2023/07/21 11:22:53;;;;;;;14.18;13.57;;;25.00;99.90;;;;;;5048317;28;20200;-66
2023/07/21 11:25:22;;;;;;;7.35;7.15;;;24.90;99.90;;;;;;5045676;28;20197;-66
2023/07/21 11:27:49;;;;;;;7.25;6.95;;;24.70;99.90;;;;;;5032283;28;20557;-66
2023/07/21 11:30:19;;;;;;;10.88;10.48;;;24.70;99.90;;;;;;5031136;28;20217;-65
2023/07/21 11:32:46;;;;;;;7.32;7.13;;;24.70;99.90;;;;;;5041692;28;20224;-66
2023/07/21 11:35:13;;;;;;;15.75;15.15;;;24.70;99.90;;;;;;5047729;28;20200;-66
2023/07/21 11:37:42;;;;;;;6.90;6.70;;;24.70;99.90;;;;;;5047569;28;20303;-65
2023/07/21 11:40:14;;;;;;;7.03;6.82;;;24.60;99.90;;;;;;5044643;28;20250;-66
2023/07/21 11:42:47;;;;;;;35.58;33.78;;;24.60;99.90;;;;;;5047340;28;20196;-66
2023/07/21 11:45:38;;;;;;;19.42;18.60;;;24.40;99.90;;;;;;5043399;28;20645;-66
2023/07/21 11:48:13;;;;;;;6.88;6.68;;;24.30;99.90;;;;;;5027693;28;20226;-66
2023/07/21 11:50:42;;;;;;;7.85;7.55;;;24.20;99.90;;;;;;5026645;28;20212;-65
2023/07/21 11:53:10;;;;;;;6.85;6.65;;;24.20;99.90;;;;;;5026929;28;20319;-66
2023/07/21 11:55:37;;;;;;;13.55;13.02;;;24.20;99.90;;;;;;5028413;28;20301;-65
2023/07/21 11:58:05;;;;;;;8.02;7.72;;;24.20;99.90;;;;;;5032392;28;20220;-65
2023/07/21 12:00:33;;;;;;;8.95;8.65;;;24.10;99.90;;;;;;5029910;28;20205;-64
2023/07/21 12:03:01;;;;;;;254.32;238.77;;;24.10;99.90;;;;;;5032131;28;20607;-64
2023/07/21 12:05:27;;;;;;;112.15;105.47;;;23.90;99.90;;;;;;5032574;28;20215;-65
2023/07/21 12:07:54;;;;;;;7.68;7.47;;;23.70;99.90;;;;;;5032797;28;20331;-65
2023/07/21 12:10:22;;;;;;;16.33;15.65;;;23.60;99.90;;;;;;5031955;28;20240;-65
2023/07/21 12:12:50;;;;;;;26.00;24.88;;;23.50;99.90;;;;;;5032274;28;20267;-66
2023/07/21 12:15:18;;;;;;;11.20;10.80;;;23.40;99.90;;;;;;5032124;28;20626;-64
2023/07/21 12:17:46;;;;;;;55.15;52.13;;;23.40;99.90;;;;;;5032447;28;20209;-64
2023/07/21 12:20:13;;;;;;;7.45;7.25;;;23.40;99.90;;;;;;5031333;28;20204;-64
2023/07/21 12:22:40;;;;;;;8.65;8.35;;;23.30;99.90;;;;;;5036809;28;20595;-65
2023/07/21 12:25:09;;;;;;;30.70;29.23;;;23.40;99.90;;;;;;5034069;28;20274;-64
2023/07/21 12:27:36;;;;;;;9.25;8.88;;;23.30;99.90;;;;;;5034202;28;20266;-65
2023/07/21 12:30:04;;;;;;;7.60;7.30;;;23.20;99.90;;;;;;5034077;28;20224;-65
2023/07/21 12:32:32;;;;;;;34.15;32.60;;;23.20;99.90;;;;;;5034682;28;20228;-65
2023/07/21 12:34:59;;;;;;;30.35;28.85;;;23.10;99.90;;;;;;5034311;28;20232;-65
2023/07/21 12:37:26;;;;;;;7.53;7.32;;;23.00;99.90;;;;;;5035716;28;20208;-65
2023/07/21 12:39:52;;;;;;;7.82;7.53;;;22.90;99.90;;;;;;5043252;28;20672;-64
2023/07/21 12:42:19;;;;;;;8.63;8.32;;;22.70;99.90;;;;;;5043602;28;20237;-64
2023/07/21 12:44:46;;;;;;;9.25;8.85;;;22.60;99.90;;;;;;5043213;28;20235;-66
2023/07/21 12:47:13;;;;;;;12.88;12.38;;;22.50;99.90;;;;;;5058673;28;20306;-65
2023/07/21 12:49:41;;;;;;;8.18;7.88;;;22.20;99.90;;;;;;5053292;28;20214;-65